sensor_id;sensor_type;location;lat;lon;timestamp;temperature;humidity
39345;DHT22;25061;51.954;6.996;2024-01-15T05:31:46;1.40;99.90
39345;DHT22;25061;51.954;6.996;2024-01-15T05:34:11;1.30;99.90
39345;DHT22;25061;51.954;6.996;2024-01-15T05:36:37;1.40;99.90
39345;DHT22;25061;51.954;6.996;2024-01-15T05:39:02;1.40;99.90
39345;DHT22;25061;51.954;6.996;2024-01-15T05:41:28;1.40;99.90
39345;DHT22;25061;51.954;6.996;2024-01-15T05:43:54;1.40;99.90
39345;DHT22;25061;51.954;6.996;2024-01-15T05:46:19;1.40;99.90
39345;DHT22;25061;51.954;6.996;2024-01-15T05:48:58;1.30;99.90
39345;DHT22;25061;51.954;6.996;2024-01-15T05:51:27;1.40;99.90
39345;DHT22;25061;51.954;6.996;2024-01-15T05:53:53;1.50;99.90
39345;DHT22;25061;51.954;6.996;2024-01-15T05:56:18;1.40;99.90
39345;DHT22;25061;51.954;6.996;2024-01-15T05:58:44;1.40;99.90
39345;DHT22;25061;51.954;6.996;2024-01-15T06:01:09;1.30;99.90
39345;DHT22;25061;51.954;6.996;2024-01-15T06:03:35;1.40;99.90
39345;DHT22;25061;51.954;6.996;2024-01-15T06:06:00;1.40;99.90
39345;DHT22;25061;51.954;6.996;2024-01-15T06:08:26;1.20;99.90
39345;DHT22;25061;51.954;6.996;2024-01-15T06:10:53;1.20;99.90
39345;DHT22;25061;51.954;6.996;2024-01-15T06:13:19;1.20;99.90
39345;DHT22;25061;51.954;6.996;2024-01-15T06:15:48;1.30;99.90
39345;DHT22;25061;51.954;6.996;2024-01-15T06:18:13;1.40;99.90
39345;DHT22;25061;51.954;6.996;2024-01-15T06:20:39;1.20;99.90
39345;DHT22;25061;51.954;6.996;2024-01-15T06:23:05;1.40;99.90
39345;DHT22;25061;51.954;6.996;2024-01-15T06:25:30;1.40;99.90
39345;DHT22;25061;51.954;6.996;2024-01-15T06:27:56;1.40;99.90
39345;DHT22;25061;51.954;6.996;2024-01-15T06:30:21;1.40;99.90
39345;DHT22;25061;51.954;6.996;2024-01-15T06:32:47;1.30;99.90
39345;DHT22;25061;51.954;6.996;2024-01-15T06:35:13;1.40;99.90
39345;DHT22;25061;51.954;6.996;2024-01-15T06:37:38;1.30;99.90
39345;DHT22;25061;51.954;6.996;2024-01-15T06:40:04;1.30;99.90
39345;DHT22;25061;51.954;6.996;2024-01-15T06:42:31;1.40;99.90
39345;DHT22;25061;51.954;6.996;2024-01-15T06:44:57;1.30;99.90
39345;DHT22;25061;51.954;6.996;2024-01-15T06:47:22;1.40;99.90
39345;DHT22;25061;51.954;6.996;2024-01-15T06:49:48;1.40;99.90
39345;DHT22;25061;51.954;6.996;2024-01-15T06:52:15;1.30;99.90
39345;DHT22;25061;51.954;6.996;2024-01-15T06:54:41;1.40;99.90
39345;DHT22;25061;51.954;6.996;2024-01-15T06:57:06;1.30;99.90
39345;DHT22;25061;51.954;6.996;2024-01-15T06:59:33;1.20;99.90
39345;DHT22;25061;51.954;6.996;2024-01-15T07:01:59;1.20;99.90
39345;DHT22;25061;51.954;6.996;2024-01-15T07:04:25;1.30;99.90
39345;DHT22;25061;51.954;6.996;2024-01-15T07:06:50;1.20;99.90
39345;DHT22;25061;51.954;6.996;2024-01-15T07:09:16;1.30;99.90
39345;DHT22;25061;51.954;6.996;2024-01-15T07:11:46;1.40;99.90
39345;DHT22;25061;51.954;6.996;2024-01-15T07:14:14;1.30;99.90
39345;DHT22;25061;51.954;6.996;2024-01-15T07:16:40;1.30;99.90
39345;DHT22;25061;51.954;6.996;2024-01-15T07:19:05;1.30;99.90
39345;DHT22;25061;51.954;6.996;2024-01-15T07:21:31;1.20;99.90
39345;DHT22;25061;51.954;6.996;2024-01-15T07:23:57;1.30;99.90
39345;DHT22;25061;51.954;6.996;2024-01-15T07:26:23;1.30;99.90
39345;DHT22;25061;51.954;6.996;2024-01-15T07:28:48;1.30;99.90
39345;DHT22;25061;51.954;6.996;2024-01-15T07:31:15;1.40;99.90
39345;DHT22;25061;51.954;6.996;2024-01-15T07:33:41;1.30;99.90
39345;DHT22;25061;51.954;6.996;2024-01-15T07:36:07;1.20;99.90
39345;DHT22;25061;51.954;6.996;2024-01-15T07:38:32;1.30;99.90
39345;DHT22;25061;51.954;6.996;2024-01-15T07:40:58;1.40;99.90
39345;DHT22;25061;51.954;6.996;2024-01-15T07:43:24;1.40;99.90
39345;DHT22;25061;51.954;6.996;2024-01-15T07:45:49;1.30;99.90
39345;DHT22;25061;51.954;6.996;2024-01-15T07:48:15;1.40;99.90
39345;DHT22;25061;51.954;6.996;2024-01-15T07:50:40;1.40;99.90
39345;DHT22;25061;51.954;6.996;2024-01-15T07:53:06;1.30;99.90
39345;DHT22;25061;51.954;6.996;2024-01-15T07:55:31;1.30;99.90
39345;DHT22;25061;51.954;6.996;2024-01-15T07:57:57;1.40;99.90
39345;DHT22;25061;51.954;6.996;2024-01-15T08:00:24;1.30;99.90
39345;DHT22;25061;51.954;6.996;2024-01-15T08:02:50;1.30;99.90
39345;DHT22;25061;51.954;6.996;2024-01-15T08:05:16;1.20;99.90
39345;DHT22;25061;51.954;6.996;2024-01-15T08:07:42;1.20;99.90
39345;DHT22;25061;51.954;6.996;2024-01-15T08:10:08;1.30;99.90
39345;DHT22;25061;51.954;6.996;2024-01-15T08:12:33;1.40;99.90
39345;DHT22;25061;51.954;6.996;2024-01-15T08:14:59;1.40;99.90
39345;DHT22;25061;51.954;6.996;2024-01-15T08:17:24;1.30;99.90
39345;DHT22;25061;51.954;6.996;2024-01-15T08:19:54;1.40;99.90
39345;DHT22;25061;51.954;6.996;2024-01-15T08:22:20;1.40;99.90
39345;DHT22;25061;51.954;6.996;2024-01-15T08:24:45;1.40;99.90
39345;DHT22;25061;51.954;6.996;2024-01-15T08:27:11;1.50;99.90
39345;DHT22;25061;51.954;6.996;2024-01-15T08:29:37;1.40;99.90
39345;DHT22;25061;51.954;6.996;2024-01-15T08:32:02;1.30;99.90
39345;DHT22;25061;51.954;6.996;2024-01-15T08:34:28;1.20;99.90
39345;DHT22;25061;51.954;6.996;2024-01-15T08:36:54;1.30;99.90
39345;DHT22;25061;51.954;6.996;2024-01-15T08:39:19;1.30;99.90
39345;DHT22;25061;51.954;6.996;2024-01-15T08:41:45;1.40;99.90
39345;DHT22;25061;51.954;6.996;2024-01-15T08:44:12;1.40;99.90
39345;DHT22;25061;51.954;6.996;2024-01-15T08:46:38;1.30;99.90
39345;DHT22;25061;51.954;6.996;2024-01-15T08:49:03;1.40;99.90
39345;DHT22;25061;51.954;6.996;2024-01-15T08:51:29;1.40;99.90
39345;DHT22;25061;51.954;6.996;2024-01-15T08:53:56;1.40;99.90
39345;DHT22;25061;51.954;6.996;2024-01-15T08:56:22;1.40;99.90
39345;DHT22;25061;51.954;6.996;2024-01-15T08:58:47;1.40;99.90
39345;DHT22;25061;51.954;6.996;2024-01-15T09:01:13;1.50;99.90
39345;DHT22;25061;51.954;6.996;2024-01-15T09:03:40;1.50;99.90
39345;DHT22;25061;51.954;6.996;2024-01-15T09:06:07;1.40;99.90
39345;DHT22;25061;51.954;6.996;2024-01-15T09:08:33;1.40;99.90
39345;DHT22;25061;51.954;6.996;2024-01-15T09:10:58;1.50;99.90
39345;DHT22;25061;51.954;6.996;2024-01-15T09:13:24;1.50;99.90
39345;DHT22;25061;51.954;6.996;2024-01-15T09:15:50;1.50;99.90
39345;DHT22;25061;51.954;6.996;2024-01-15T09:18:15;1.50;99.90
39345;DHT22;25061;51.954;6.996;2024-01-15T09:20:41;1.50;99.90
39345;DHT22;25061;51.954;6.996;2024-01-15T09:23:06;1.40;99.90
39345;DHT22;25061;51.954;6.996;2024-01-15T09:25:32;1.50;99.90
39345;DHT22;25061;51.954;6.996;2024-01-15T09:27:58;1.50;99.90
39345;DHT22;25061;51.954;6.996;2024-01-15T09:30:23;1.60;99.90
39345;DHT22;25061;51.954;6.996;2024-01-15T09:32:49;1.50;99.90
39345;DHT22;25061;51.954;6.996;2024-01-15T09:35:14;1.40;99.90
39345;DHT22;25061;51.954;6.996;2024-01-15T09:37:41;1.40;99.90
39345;DHT22;25061;51.954;6.996;2024-01-15T09:40:08;1.50;99.90
39345;DHT22;25061;51.954;6.996;2024-01-15T09:42:37;1.60;99.90
39345;DHT22;25061;51.954;6.996;2024-01-15T09:45:03;1.50;99.90
39345;DHT22;25061;51.954;6.996;2024-01-15T09:47:29;1.50;99.90
39345;DHT22;25061;51.954;6.996;2024-01-15T09:49:55;1.50;99.90
39345;DHT22;25061;51.954;6.996;2024-01-15T09:52:24;1.60;99.90
39345;DHT22;25061;51.954;6.996;2024-01-15T09:54:49;1.70;99.90
39345;DHT22;25061;51.954;6.996;2024-01-15T09:57:16;1.70;99.90
39345;DHT22;25061;51.954;6.996;2024-01-15T09:59:43;1.90;99.90
39345;DHT22;25061;51.954;6.996;2024-01-15T10:02:10;2.10;99.90
39345;DHT22;25061;51.954;6.996;2024-01-15T10:04:38;1.80;99.90
39345;DHT22;25061;51.954;6.996;2024-01-15T10:07:05;1.60;99.90
39345;DHT22;25061;51.954;6.996;2024-01-15T10:09:33;1.60;99.90
39345;DHT22;25061;51.954;6.996;2024-01-15T10:11:59;1.60;99.90
39345;DHT22;25061;51.954;6.996;2024-01-15T10:14:25;1.50;99.90
39345;DHT22;25061;51.954;6.996;2024-01-15T10:16:50;1.50;99.90
39345;DHT22;25061;51.954;6.996;2024-01-15T10:19:16;1.90;99.90
39345;DHT22;25061;51.954;6.996;2024-01-15T10:21:41;2.60;99.90
39345;DHT22;25061;51.954;6.996;2024-01-15T10:24:07;2.10;99.90
39345;DHT22;25061;51.954;6.996;2024-01-15T10:26:33;1.70;99.90
39345;DHT22;25061;51.954;6.996;2024-01-15T10:28:59;1.80;99.90
39345;DHT22;25061;51.954;6.996;2024-01-15T10:31:26;2.00;99.90
39345;DHT22;25061;51.954;6.996;2024-01-15T10:33:53;2.10;99.90
39345;DHT22;25061;51.954;6.996;2024-01-15T10:36:19;2.00;99.90
39345;DHT22;25061;51.954;6.996;2024-01-15T10:38:45;1.80;99.90
39345;DHT22;25061;51.954;6.996;2024-01-15T10:41:10;1.70;99.90
39345;DHT22;25061;51.954;6.996;2024-01-15T10:43:36;1.70;99.90
39345;DHT22;25061;51.954;6.996;2024-01-15T10:46:02;1.90;99.90
39345;DHT22;25061;51.954;6.996;2024-01-15T10:48:28;1.60;99.90
39345;DHT22;25061;51.954;6.996;2024-01-15T10:50:59;1.70;99.90
39345;DHT22;25061;51.954;6.996;2024-01-15T10:53:25;1.60;99.90
39345;DHT22;25061;51.954;6.996;2024-01-15T10:55:51;1.60;99.90
39345;DHT22;25061;51.954;6.996;2024-01-15T10:58:17;1.60;99.90
39345;DHT22;25061;51.954;6.996;2024-01-15T11:00:43;1.60;99.90
39345;DHT22;25061;51.954;6.996;2024-01-15T11:03:10;1.70;99.90
39345;DHT22;25061;51.954;6.996;2024-01-15T11:05:43;1.70;99.90
39345;DHT22;25061;51.954;6.996;2024-01-15T11:08:09;1.70;99.90
39345;DHT22;25061;51.954;6.996;2024-01-15T11:10:50;1.60;99.90
39345;DHT22;25061;51.954;6.996;2024-01-15T11:16:03;1.60;99.90
39345;DHT22;25061;51.954;6.996;2024-01-15T11:18:35;1.60;99.90
39345;DHT22;25061;51.954;6.996;2024-01-15T11:23:46;1.70;99.90
39345;DHT22;25061;51.954;6.996;2024-01-15T11:26:35;1.70;99.90
39345;DHT22;25061;51.954;6.996;2024-01-15T11:29:06;1.70;99.90
39345;DHT22;25061;51.954;6.996;2024-01-15T11:34:07;1.70;99.90
39345;DHT22;25061;51.954;6.996;2024-01-15T11:41:58;1.80;99.90
39345;DHT22;25061;51.954;6.996;2024-01-15T11:44:24;1.80;99.90
39345;DHT22;25061;51.954;6.996;2024-01-15T11:47:00;1.80;99.90
39345;DHT22;25061;51.954;6.996;2024-01-15T11:50:02;1.80;99.90
39345;DHT22;25061;51.954;6.996;2024-01-15T11:52:37;1.80;99.90
39345;DHT22;25061;51.954;6.996;2024-01-15T11:57:54;1.70;99.90
39345;DHT22;25061;51.954;6.996;2024-01-15T12:00:22;1.80;99.90
39345;DHT22;25061;51.954;6.996;2024-01-15T12:02:49;1.80;99.90
39345;DHT22;25061;51.954;6.996;2024-01-15T12:05:17;1.70;99.90
39345;DHT22;25061;51.954;6.996;2024-01-15T12:07:44;1.70;99.90
39345;DHT22;25061;51.954;6.996;2024-01-15T12:10:20;1.70;99.90
39345;DHT22;25061;51.954;6.996;2024-01-15T12:15:15;1.80;99.90
39345;DHT22;25061;51.954;6.996;2024-01-15T12:17:41;1.80;99.90
39345;DHT22;25061;51.954;6.996;2024-01-15T12:20:07;1.80;99.90
39345;DHT22;25061;51.954;6.996;2024-01-15T12:22:32;1.80;99.90
39345;DHT22;25061;51.954;6.996;2024-01-15T12:24:59;1.80;99.90
39345;DHT22;25061;51.954;6.996;2024-01-15T12:27:24;1.80;99.90
39345;DHT22;25061;51.954;6.996;2024-01-15T12:29:50;1.80;99.90
39345;DHT22;25061;51.954;6.996;2024-01-15T12:32:16;1.70;99.90
39345;DHT22;25061;51.954;6.996;2024-01-15T12:34:42;1.80;99.90
39345;DHT22;25061;51.954;6.996;2024-01-15T12:37:08;1.70;99.90
39345;DHT22;25061;51.954;6.996;2024-01-15T12:39:34;1.80;99.90
39345;DHT22;25061;51.954;6.996;2024-01-15T12:42:01;1.70;99.90
39345;DHT22;25061;51.954;6.996;2024-01-15T12:44:27;1.70;99.90
39345;DHT22;25061;51.954;6.996;2024-01-15T12:46:53;1.70;99.90
39345;DHT22;25061;51.954;6.996;2024-01-15T12:49:19;1.70;99.90
39345;DHT22;25061;51.954;6.996;2024-01-15T12:51:52;1.70;99.90
39345;DHT22;25061;51.954;6.996;2024-01-15T12:54:18;1.70;99.90
39345;DHT22;25061;51.954;6.996;2024-01-15T12:56:44;1.70;99.90
39345;DHT22;25061;51.954;6.996;2024-01-15T12:59:10;1.70;99.90
39345;DHT22;25061;51.954;6.996;2024-01-15T13:01:35;1.70;99.90
39345;DHT22;25061;51.954;6.996;2024-01-15T13:04:01;1.80;99.90
39345;DHT22;25061;51.954;6.996;2024-01-15T13:06:27;1.80;99.90
39345;DHT22;25061;51.954;6.996;2024-01-15T13:08:52;1.80;99.90
39345;DHT22;25061;51.954;6.996;2024-01-15T13:11:18;1.80;99.90
39345;DHT22;25061;51.954;6.996;2024-01-15T13:13:43;1.80;99.90
39345;DHT22;25061;51.954;6.996;2024-01-15T13:16:09;1.80;99.90
39345;DHT22;25061;51.954;6.996;2024-01-15T13:18:35;1.80;99.90
39345;DHT22;25061;51.954;6.996;2024-01-15T13:21:00;1.80;99.90
39345;DHT22;25061;51.954;6.996;2024-01-15T13:23:28;1.80;99.90
39345;DHT22;25061;51.954;6.996;2024-01-15T13:25:53;1.80;99.90
39345;DHT22;25061;51.954;6.996;2024-01-15T13:28:20;1.80;99.90
39345;DHT22;25061;51.954;6.996;2024-01-15T13:30:46;1.80;99.90
39345;DHT22;25061;51.954;6.996;2024-01-15T13:33:13;1.80;99.90
39345;DHT22;25061;51.954;6.996;2024-01-15T13:35:38;1.80;99.90
39345;DHT22;25061;51.954;6.996;2024-01-15T13:38:04;1.80;99.90
39345;DHT22;25061;51.954;6.996;2024-01-15T13:40:30;1.80;99.90
39345;DHT22;25061;51.954;6.996;2024-01-15T13:42:55;1.80;99.90
39345;DHT22;25061;51.954;6.996;2024-01-15T13:45:21;1.80;99.90
39345;DHT22;25061;51.954;6.996;2024-01-15T13:47:49;1.80;99.90
39345;DHT22;25061;51.954;6.996;2024-01-15T13:50:14;1.80;99.90
39345;DHT22;25061;51.954;6.996;2024-01-15T13:52:40;1.80;99.90
39345;DHT22;25061;51.954;6.996;2024-01-15T13:55:06;1.80;99.90
39345;DHT22;25061;51.954;6.996;2024-01-15T13:57:34;1.80;99.90
39345;DHT22;25061;51.954;6.996;2024-01-15T13:59:59;1.80;99.90
39345;DHT22;25061;51.954;6.996;2024-01-15T14:02:25;1.80;99.90
39345;DHT22;25061;51.954;6.996;2024-01-15T14:04:51;1.80;99.90
39345;DHT22;25061;51.954;6.996;2024-01-15T14:07:16;1.80;99.90
39345;DHT22;25061;51.954;6.996;2024-01-15T14:09:42;1.80;99.90
39345;DHT22;25061;51.954;6.996;2024-01-15T14:12:07;1.80;99.90
39345;DHT22;25061;51.954;6.996;2024-01-15T14:14:33;1.90;99.90
39345;DHT22;25061;51.954;6.996;2024-01-15T14:16:58;1.90;99.90
39345;DHT22;25061;51.954;6.996;2024-01-15T14:19:24;1.80;99.90
39345;DHT22;25061;51.954;6.996;2024-01-15T14:21:50;1.80;99.90
39345;DHT22;25061;51.954;6.996;2024-01-15T14:24:15;1.80;99.90
39345;DHT22;25061;51.954;6.996;2024-01-15T14:26:42;1.80;99.90
39345;DHT22;25061;51.954;6.996;2024-01-15T14:29:08;1.90;99.90
39345;DHT22;25061;51.954;6.996;2024-01-15T14:31:33;1.90;99.90
39345;DHT22;25061;51.954;6.996;2024-01-15T14:33:59;1.90;99.90
39345;DHT22;25061;51.954;6.996;2024-01-15T14:36:25;1.90;99.90
39345;DHT22;25061;51.954;6.996;2024-01-15T14:38:51;1.90;99.90
39345;DHT22;25061;51.954;6.996;2024-01-15T14:41:16;1.90;99.90
39345;DHT22;25061;51.954;6.996;2024-01-15T14:43:42;1.90;99.90
39345;DHT22;25061;51.954;6.996;2024-01-15T14:46:08;1.90;99.90
39345;DHT22;25061;51.954;6.996;2024-01-15T14:48:33;1.90;99.90
39345;DHT22;25061;51.954;6.996;2024-01-15T14:50:59;1.90;99.90
39345;DHT22;25061;51.954;6.996;2024-01-15T14:53:25;1.80;99.90
39345;DHT22;25061;51.954;6.996;2024-01-15T14:55:50;1.90;99.90
39345;DHT22;25061;51.954;6.996;2024-01-15T14:58:16;1.90;99.90
39345;DHT22;25061;51.954;6.996;2024-01-15T15:00:41;1.80;99.90
39345;DHT22;25061;51.954;6.996;2024-01-15T15:03:07;1.80;99.90
39345;DHT22;25061;51.954;6.996;2024-01-15T15:05:32;1.80;99.90
39345;DHT22;25061;51.954;6.996;2024-01-15T15:07:58;1.80;99.90
39345;DHT22;25061;51.954;6.996;2024-01-15T15:10:25;1.80;99.90
39345;DHT22;25061;51.954;6.996;2024-01-15T15:12:52;1.80;99.90
39345;DHT22;25061;51.954;6.996;2024-01-15T15:15:17;1.70;99.90
39345;DHT22;25061;51.954;6.996;2024-01-15T15:17:43;1.70;99.90
39345;DHT22;25061;51.954;6.996;2024-01-15T15:20:09;1.70;99.90
39345;DHT22;25061;51.954;6.996;2024-01-15T15:22:35;1.70;99.90
39345;DHT22;25061;51.954;6.996;2024-01-15T15:25:01;1.70;99.90
39345;DHT22;25061;51.954;6.996;2024-01-15T15:27:26;1.50;99.90
39345;DHT22;25061;51.954;6.996;2024-01-15T15:29:53;1.60;99.90
39345;DHT22;25061;51.954;6.996;2024-01-15T15:32:19;1.60;99.90
39345;DHT22;25061;51.954;6.996;2024-01-15T15:34:44;1.50;99.90
39345;DHT22;25061;51.954;6.996;2024-01-15T15:37:11;1.60;99.90
39345;DHT22;25061;51.954;6.996;2024-01-15T15:39:36;1.50;99.90
39345;DHT22;25061;51.954;6.996;2024-01-15T15:42:02;1.50;99.90
39345;DHT22;25061;51.954;6.996;2024-01-15T15:44:27;1.40;99.90
39345;DHT22;25061;51.954;6.996;2024-01-15T15:46:53;1.40;99.90
39345;DHT22;25061;51.954;6.996;2024-01-15T15:49:19;1.40;99.90
39345;DHT22;25061;51.954;6.996;2024-01-15T15:51:44;1.30;99.90
39345;DHT22;25061;51.954;6.996;2024-01-15T15:54:17;1.30;99.90
39345;DHT22;25061;51.954;6.996;2024-01-15T15:56:43;1.30;99.90
39345;DHT22;25061;51.954;6.996;2024-01-15T15:59:13;1.40;99.90
39345;DHT22;25061;51.954;6.996;2024-01-15T16:01:38;1.30;99.90
39345;DHT22;25061;51.954;6.996;2024-01-15T16:04:04;1.30;99.90
39345;DHT22;25061;51.954;6.996;2024-01-15T16:06:30;1.30;99.90
39345;DHT22;25061;51.954;6.996;2024-01-15T16:08:55;1.30;99.90
39345;DHT22;25061;51.954;6.996;2024-01-15T16:11:21;1.30;99.90
39345;DHT22;25061;51.954;6.996;2024-01-15T16:13:46;1.30;99.90
39345;DHT22;25061;51.954;6.996;2024-01-15T16:16:12;1.30;99.90
39345;DHT22;25061;51.954;6.996;2024-01-15T16:18:37;1.30;99.90
39345;DHT22;25061;51.954;6.996;2024-01-15T16:21:03;1.40;99.90
39345;DHT22;25061;51.954;6.996;2024-01-15T16:23:29;1.40;99.90
39345;DHT22;25061;51.954;6.996;2024-01-15T16:25:55;1.40;99.90
39345;DHT22;25061;51.954;6.996;2024-01-15T16:28:20;1.40;99.90
39345;DHT22;25061;51.954;6.996;2024-01-15T16:30:46;1.40;99.90
39345;DHT22;25061;51.954;6.996;2024-01-15T16:33:12;1.30;99.90
39345;DHT22;25061;51.954;6.996;2024-01-15T16:35:38;1.30;99.90
39345;DHT22;25061;51.954;6.996;2024-01-15T16:38:05;1.50;99.90
39345;DHT22;25061;51.954;6.996;2024-01-15T16:40:30;1.30;99.90
39345;DHT22;25061;51.954;6.996;2024-01-15T16:42:56;1.30;99.90
39345;DHT22;25061;51.954;6.996;2024-01-15T16:45:22;1.30;99.90
39345;DHT22;25061;51.954;6.996;2024-01-15T16:47:47;1.40;99.90
39345;DHT22;25061;51.954;6.996;2024-01-15T16:50:13;1.40;99.90
39345;DHT22;25061;51.954;6.996;2024-01-15T16:52:38;1.30;99.90
39345;DHT22;25061;51.954;6.996;2024-01-15T16:55:04;1.40;99.90
39345;DHT22;25061;51.954;6.996;2024-01-15T16:57:30;1.40;99.90
39345;DHT22;25061;51.954;6.996;2024-01-15T16:59:56;1.30;99.90
39345;DHT22;25061;51.954;6.996;2024-01-15T17:02:22;1.40;99.90
39345;DHT22;25061;51.954;6.996;2024-01-15T17:04:47;1.40;99.90
39345;DHT22;25061;51.954;6.996;2024-01-15T17:07:13;1.40;99.90
39345;DHT22;25061;51.954;6.996;2024-01-15T17:09:39;1.40;99.90
39345;DHT22;25061;51.954;6.996;2024-01-15T17:12:05;1.40;99.90
39345;DHT22;25061;51.954;6.996;2024-01-15T17:14:30;1.30;99.90
39345;DHT22;25061;51.954;6.996;2024-01-15T17:16:56;1.30;99.90
39345;DHT22;25061;51.954;6.996;2024-01-15T17:19:21;1.30;99.90
39345;DHT22;25061;51.954;6.996;2024-01-15T17:21:47;1.40;99.90
39345;DHT22;25061;51.954;6.996;2024-01-15T17:24:13;1.30;99.90
39345;DHT22;25061;51.954;6.996;2024-01-15T17:26:38;1.30;99.90
39345;DHT22;25061;51.954;6.996;2024-01-15T17:29:04;1.40;99.90
39345;DHT22;25061;51.954;6.996;2024-01-15T17:31:30;1.30;99.90
39345;DHT22;25061;51.954;6.996;2024-01-15T17:33:55;1.30;99.90
39345;DHT22;25061;51.954;6.996;2024-01-15T17:36:21;1.40;99.90
39345;DHT22;25061;51.954;6.996;2024-01-15T17:38:47;1.30;99.90
39345;DHT22;25061;51.954;6.996;2024-01-15T17:41:13;1.30;99.90
39345;DHT22;25061;51.954;6.996;2024-01-15T17:43:39;1.30;99.90
39345;DHT22;25061;51.954;6.996;2024-01-15T17:46:05;1.30;99.90
39345;DHT22;25061;51.954;6.996;2024-01-15T17:48:30;1.30;99.90
39345;DHT22;25061;51.954;6.996;2024-01-15T17:50:57;1.40;99.90
39345;DHT22;25061;51.954;6.996;2024-01-15T17:53:25;1.50;99.90
39345;DHT22;25061;51.954;6.996;2024-01-15T17:55:50;1.60;99.90
39345;DHT22;25061;51.954;6.996;2024-01-15T17:58:16;1.50;99.90
39345;DHT22;25061;51.954;6.996;2024-01-15T18:00:41;1.40;99.90
39345;DHT22;25061;51.954;6.996;2024-01-15T18:03:07;1.40;99.90
39345;DHT22;25061;51.954;6.996;2024-01-15T18:05:32;1.50;99.90
39345;DHT22;25061;51.954;6.996;2024-01-15T18:07:58;1.40;99.90
39345;DHT22;25061;51.954;6.996;2024-01-15T18:10:24;1.40;99.90
39345;DHT22;25061;51.954;6.996;2024-01-15T18:12:50;1.50;99.90
39345;DHT22;25061;51.954;6.996;2024-01-15T18:15:15;1.50;99.90
39345;DHT22;25061;51.954;6.996;2024-01-15T18:17:42;1.50;99.90
39345;DHT22;25061;51.954;6.996;2024-01-15T18:20:08;1.50;99.90
39345;DHT22;25061;51.954;6.996;2024-01-15T18:22:34;1.40;99.90
39345;DHT22;25061;51.954;6.996;2024-01-15T18:24:59;1.50;99.90
39345;DHT22;25061;51.954;6.996;2024-01-15T18:27:25;1.50;99.90
39345;DHT22;25061;51.954;6.996;2024-01-15T18:29:54;1.50;99.90
39345;DHT22;25061;51.954;6.996;2024-01-15T18:32:20;1.60;99.90
39345;DHT22;25061;51.954;6.996;2024-01-15T18:34:47;1.50;99.90
39345;DHT22;25061;51.954;6.996;2024-01-15T18:37:12;1.50;99.90
39345;DHT22;25061;51.954;6.996;2024-01-15T18:39:38;1.50;99.90
39345;DHT22;25061;51.954;6.996;2024-01-15T18:42:04;1.40;99.90
39345;DHT22;25061;51.954;6.996;2024-01-15T18:44:29;1.40;99.90
39345;DHT22;25061;51.954;6.996;2024-01-15T18:46:55;1.40;99.90
39345;DHT22;25061;51.954;6.996;2024-01-15T18:49:21;1.50;99.90
39345;DHT22;25061;51.954;6.996;2024-01-15T18:51:47;1.40;99.90
39345;DHT22;25061;51.954;6.996;2024-01-15T18:54:19;1.30;99.90
39345;DHT22;25061;51.954;6.996;2024-01-15T18:56:45;1.50;99.90
39345;DHT22;25061;51.954;6.996;2024-01-15T18:59:11;1.50;99.90
39345;DHT22;25061;51.954;6.996;2024-01-15T19:01:39;1.50;99.90
39345;DHT22;25061;51.954;6.996;2024-01-15T19:04:05;1.40;99.90
39345;DHT22;25061;51.954;6.996;2024-01-15T19:06:30;1.30;99.90
39345;DHT22;25061;51.954;6.996;2024-01-15T19:08:56;1.30;99.90
39345;DHT22;25061;51.954;6.996;2024-01-15T19:11:22;1.40;99.90
39345;DHT22;25061;51.954;6.996;2024-01-15T19:13:48;1.50;99.90
39345;DHT22;25061;51.954;6.996;2024-01-15T19:16:14;1.30;99.90
39345;DHT22;25061;51.954;6.996;2024-01-15T19:18:40;1.40;99.90
39345;DHT22;25061;51.954;6.996;2024-01-15T19:21:06;1.50;99.90
39345;DHT22;25061;51.954;6.996;2024-01-15T19:23:32;1.40;99.90
39345;DHT22;25061;51.954;6.996;2024-01-15T19:25:57;1.30;99.90
39345;DHT22;25061;51.954;6.996;2024-01-15T19:28:23;1.30;99.90
39345;DHT22;25061;51.954;6.996;2024-01-15T19:30:49;1.40;99.90
39345;DHT22;25061;51.954;6.996;2024-01-15T19:33:16;1.40;99.90
39345;DHT22;25061;51.954;6.996;2024-01-15T19:35:43;1.40;99.90
39345;DHT22;25061;51.954;6.996;2024-01-15T19:38:08;1.30;99.90
39345;DHT22;25061;51.954;6.996;2024-01-15T19:40:35;1.40;99.90
39345;DHT22;25061;51.954;6.996;2024-01-15T19:43:01;1.30;99.90
39345;DHT22;25061;51.954;6.996;2024-01-15T19:45:27;1.40;99.90
39345;DHT22;25061;51.954;6.996;2024-01-15T19:47:53;1.40;99.90
39345;DHT22;25061;51.954;6.996;2024-01-15T19:50:18;1.40;99.90
39345;DHT22;25061;51.954;6.996;2024-01-15T19:52:44;1.40;99.90
39345;DHT22;25061;51.954;6.996;2024-01-15T19:55:10;1.30;99.90
39345;DHT22;25061;51.954;6.996;2024-01-15T19:57:35;1.30;99.90
39345;DHT22;25061;51.954;6.996;2024-01-15T20:00:01;1.20;99.90
39345;DHT22;25061;51.954;6.996;2024-01-15T20:02:26;1.20;99.90
39345;DHT22;25061;51.954;6.996;2024-01-15T20:04:52;1.20;99.90
39345;DHT22;25061;51.954;6.996;2024-01-15T20:07:17;1.30;99.90
39345;DHT22;25061;51.954;6.996;2024-01-15T20:09:43;1.20;99.90
39345;DHT22;25061;51.954;6.996;2024-01-15T20:12:09;1.30;99.90
39345;DHT22;25061;51.954;6.996;2024-01-15T20:14:35;1.30;99.90
39345;DHT22;25061;51.954;6.996;2024-01-15T20:17:01;1.20;99.90
39345;DHT22;25061;51.954;6.996;2024-01-15T20:19:30;1.30;99.90
39345;DHT22;25061;51.954;6.996;2024-01-15T20:21:56;1.30;99.90
39345;DHT22;25061;51.954;6.996;2024-01-15T20:24:22;1.20;99.90
39345;DHT22;25061;51.954;6.996;2024-01-15T20:26:49;1.20;99.90
39345;DHT22;25061;51.954;6.996;2024-01-15T20:29:15;1.40;99.90
39345;DHT22;25061;51.954;6.996;2024-01-15T20:31:40;1.40;99.90
39345;DHT22;25061;51.954;6.996;2024-01-15T20:34:06;1.40;99.90
39345;DHT22;25061;51.954;6.996;2024-01-15T20:36:32;1.40;99.90
39345;DHT22;25061;51.954;6.996;2024-01-15T20:38:57;1.40;99.90
39345;DHT22;25061;51.954;6.996;2024-01-15T20:41:24;1.40;99.90
39345;DHT22;25061;51.954;6.996;2024-01-15T20:43:50;1.20;99.90
39345;DHT22;25061;51.954;6.996;2024-01-15T20:46:15;1.30;99.90
39345;DHT22;25061;51.954;6.996;2024-01-15T20:48:42;1.40;99.90
39345;DHT22;25061;51.954;6.996;2024-01-15T20:51:09;1.40;99.90
39345;DHT22;25061;51.954;6.996;2024-01-15T20:53:35;1.30;99.90
39345;DHT22;25061;51.954;6.996;2024-01-15T20:56:01;1.30;99.90
39345;DHT22;25061;51.954;6.996;2024-01-15T20:58:26;1.40;99.90
39345;DHT22;25061;51.954;6.996;2024-01-15T21:00:53;1.40;99.90
39345;DHT22;25061;51.954;6.996;2024-01-15T21:03:19;1.30;99.90
39345;DHT22;25061;51.954;6.996;2024-01-15T21:05:47;1.10;99.90
39345;DHT22;25061;51.954;6.996;2024-01-15T21:08:15;1.30;99.90
39345;DHT22;25061;51.954;6.996;2024-01-15T21:10:40;1.30;99.90
39345;DHT22;25061;51.954;6.996;2024-01-15T21:13:06;1.30;99.90
39345;DHT22;25061;51.954;6.996;2024-01-15T21:15:32;1.30;99.90
39345;DHT22;25061;51.954;6.996;2024-01-15T21:17:58;1.30;99.90
39345;DHT22;25061;51.954;6.996;2024-01-15T21:20:25;1.30;99.90
39345;DHT22;25061;51.954;6.996;2024-01-15T21:22:52;1.40;99.90
39345;DHT22;25061;51.954;6.996;2024-01-15T21:25:18;1.40;99.90
39345;DHT22;25061;51.954;6.996;2024-01-15T21:27:44;1.40;99.90